PWSweather.com
Personal Weather Stations
Station Observations
ISTOCKPO4
Cheadle HulmeGB SK8 6NZ

Cheadle HulmeGB SK8 6NZ

Lat: 53.363783, Lon: -2.1948438

Elevation: 261

Station Type: Davis VP2 with Daytime FARS

http://www.cheadlehulmeweather.co.uk

High Low Average
Temperature 66.2°F19.0°F 55.8°F13.2°F 60.8°F16.0°F
Dew Point 61.3°F16.3°F 51.2°F10.7°F 54.4°F12.4°F
Winds 11.0 mph -17.7 mph - Calm Calm 4.8 mph 7.7 mph
Wind Gusts 20.0 mph32.2 mph 2.0 mph3.2 mph 11.0 mph17.7 mph
Humidity 94% 61% 80%
Pressure 29.97 in1014.90 in 29.77 in1008.10 in -
Precipitation 0.71 in18.00 in - -
Hour Temp Dew Point Humidity Winds Wind Gusts Pressure Precip Precip Rate Daily Precip Total
12:00 AM 64.2°F17.9°C 61.2°F16.2°C 90% 9.0 mph S14.5 kmh S 17.0 mph27.4 kmh 29.81 in1009.5 mb 0.00 in0.0 mm 0.00 in0.0 mm 0.00 in0.0 mm
12:15 AM 64.2°F17.9°C 61.2°F16.2°C 90% 9.0 mph S14.5 kmh S 16.0 mph25.7 kmh 29.81 in1009.5 mb 0.00 in0.0 mm 0.00 in0.0 mm 0.00 in0.0 mm
12:30 AM 63.9°F17.7°C 61.2°F16.2°C 91% 8.0 mph S12.9 kmh S 13.0 mph20.9 kmh 29.81 in1009.5 mb 0.02 in0.5 mm 0.08 in2.0 mm 0.02 in0.5 mm
12:45 AM 63.7°F17.6°C 61.3°F16.3°C 92% 6.0 mph S9.7 kmh S 12.0 mph19.3 kmh 29.81 in1009.5 mb 0.02 in0.5 mm 0.00 in0.0 mm 0.02 in0.5 mm
01:00 AM 63.3°F17.4°C 60.6°F15.9°C 91% 6.0 mph S9.7 kmh S 12.0 mph19.3 kmh 29.80 in1009.1 mb 0.02 in0.5 mm 0.00 in0.0 mm 0.02 in0.5 mm
01:15 AM 63.3°F17.4°C 61.0°F16.1°C 92% 5.0 mph S8.0 kmh S 10.0 mph16.1 kmh 29.80 in1009.1 mb 0.01 in0.3 mm 0.00 in0.0 mm 0.02 in0.5 mm
01:30 AM 63.1°F17.3°C 60.8°F16.0°C 92% 5.0 mph S8.0 kmh S 9.0 mph14.5 kmh 29.80 in1009.1 mb 0.00 in0.0 mm 0.00 in0.0 mm 0.02 in0.5 mm
01:45 AM 63.1°F17.3°C 60.8°F16.0°C 92% 5.0 mph S8.0 kmh S 13.0 mph20.9 kmh 29.80 in1009.1 mb 0.01 in0.3 mm 0.04 in1.0 mm 0.03 in0.8 mm
02:00 AM 63.0°F17.2°C 60.9°F16.1°C 93% 5.0 mph S8.0 kmh S 10.0 mph16.1 kmh 29.79 in1008.8 mb 0.03 in0.8 mm 0.03 in0.8 mm 0.05 in1.3 mm
02:15 AM 62.8°F17.1°C 60.7°F15.9°C 93% 6.0 mph S9.7 kmh S 12.0 mph19.3 kmh 29.79 in1008.8 mb 0.04 in1.0 mm 0.04 in1.0 mm 0.06 in1.5 mm
02:30 AM 62.6°F17.0°C 60.5°F15.8°C 93% 6.0 mph S9.7 kmh S 10.0 mph16.1 kmh 29.78 in1008.5 mb 0.04 in1.0 mm 0.00 in0.0 mm 0.06 in1.5 mm
02:45 AM 62.4°F16.9°C 60.4°F15.8°C 93% 6.0 mph S9.7 kmh S 11.0 mph17.7 kmh 29.78 in1008.5 mb 0.05 in1.3 mm 0.04 in1.0 mm 0.08 in2.0 mm
03:00 AM 62.2°F16.8°C 60.2°F15.7°C 93% 5.0 mph S8.0 kmh S 9.0 mph14.5 kmh 29.78 in1008.5 mb 0.05 in1.3 mm 0.00 in0.0 mm 0.10 in2.5 mm
03:15 AM 62.1°F16.7°C 60.0°F15.6°C 93% 4.0 mph S6.4 kmh S 9.0 mph14.5 kmh 29.78 in1008.5 mb 0.05 in1.3 mm 0.00 in0.0 mm 0.11 in2.8 mm
03:30 AM 61.9°F16.6°C 60.1°F15.6°C 94% 8.0 mph S12.9 kmh S 14.0 mph22.5 kmh 29.78 in1008.5 mb 0.06 in1.5 mm 0.04 in1.0 mm 0.12 in3.0 mm
03:45 AM 61.3°F16.3°C 59.3°F15.2°C 93% 8.0 mph S12.9 kmh S 18.0 mph29.0 kmh 29.77 in1008.1 mb 0.07 in1.8 mm 0.04 in1.0 mm 0.15 in3.8 mm
04:00 AM 60.4°F15.8°C 58.1°F14.5°C 92% 8.0 mph S12.9 kmh S 15.0 mph24.1 kmh 29.78 in1008.5 mb 0.07 in1.8 mm 0.00 in0.0 mm 0.17 in4.3 mm
04:15 AM 59.4°F15.2°C 56.7°F13.7°C 91% 11.0 mph S17.7 kmh S 19.0 mph30.6 kmh 29.77 in1008.1 mb 0.06 in1.5 mm 0.00 in0.0 mm 0.17 in4.3 mm
04:30 AM 58.8°F14.9°C 56.2°F13.4°C 91% 8.0 mph S12.9 kmh S 14.0 mph22.5 kmh 29.77 in1008.1 mb 0.05 in1.3 mm 0.00 in0.0 mm 0.17 in4.3 mm
04:45 AM 58.5°F14.7°C 55.8°F13.2°C 91% 6.0 mph S9.7 kmh S 12.0 mph19.3 kmh 29.78 in1008.5 mb 0.02 in0.5 mm 0.00 in0.0 mm 0.17 in4.3 mm
05:00 AM 58.3°F14.6°C 56.0°F13.3°C 92% 3.0 mph SSW4.8 kmh SSW 11.0 mph17.7 kmh 29.78 in1008.5 mb 0.00 in0.0 mm 0.00 in0.0 mm 0.17 in4.3 mm
05:15 AM 57.4°F14.1°C 54.8°F12.7°C 91% 7.0 mph WNW11.3 kmh WNW 15.0 mph24.1 kmh 29.79 in1008.8 mb 0.00 in0.0 mm 0.00 in0.0 mm 0.17 in4.3 mm
05:30 AM 56.5°F13.6°C 53.9°F12.2°C 91% 2.0 mph W3.2 kmh W 7.0 mph11.3 kmh 29.79 in1008.8 mb 0.00 in0.0 mm 0.00 in0.0 mm 0.17 in4.3 mm
05:45 AM 56.5°F13.6°C 54.2°F12.3°C 92% 1.0 mph WSW1.6 kmh WSW 4.0 mph6.4 kmh 29.79 in1008.8 mb 0.00 in0.0 mm 0.00 in0.0 mm 0.17 in4.3 mm
06:00 AM 56.3°F13.5°C 54.0°F12.2°C 92% Calm Calm 2.0 mph3.2 kmh 29.79 in1008.8 mb 0.00 in0.0 mm 0.00 in0.0 mm 0.17 in4.3 mm
06:15 AM 56.3°F13.5°C 54.0°F12.2°C 92% 1.0 mph SW1.6 kmh SW 3.0 mph4.8 kmh 29.80 in1009.1 mb 0.00 in0.0 mm 0.00 in0.0 mm 0.17 in4.3 mm
06:30 AM 56.3°F13.5°C 54.0°F12.2°C 92% 2.0 mph SW3.2 kmh SW 6.0 mph9.7 kmh 29.80 in1009.1 mb 0.00 in0.0 mm 0.00 in0.0 mm 0.17 in4.3 mm
06:45 AM 56.1°F13.4°C 53.8°F12.1°C 92% 2.0 mph SW3.2 kmh SW 7.0 mph11.3 kmh 29.80 in1009.1 mb 0.01 in0.3 mm 0.04 in1.0 mm 0.18 in4.6 mm
07:00 AM 56.3°F13.5°C 54.3°F12.4°C 93% 1.0 mph SW1.6 kmh SW 4.0 mph6.4 kmh 29.80 in1009.1 mb 0.01 in0.3 mm 0.00 in0.0 mm 0.18 in4.6 mm
07:15 AM 56.5°F13.6°C 54.5°F12.5°C 93% 2.0 mph SW3.2 kmh SW 5.0 mph8.0 kmh 29.81 in1009.5 mb 0.01 in0.3 mm 0.00 in0.0 mm 0.18 in4.6 mm
07:30 AM 56.5°F13.6°C 54.5°F12.5°C 93% 1.0 mph SW1.6 kmh SW 6.0 mph9.7 kmh 29.81 in1009.5 mb 0.01 in0.3 mm 0.00 in0.0 mm 0.18 in4.6 mm
07:45 AM 56.7°F13.7°C 54.7°F12.6°C 93% 1.0 mph SW1.6 kmh SW 6.0 mph9.7 kmh 29.82 in1009.8 mb 0.00 in0.0 mm 0.00 in0.0 mm 0.18 in4.6 mm
08:00 AM 56.8°F13.8°C 54.5°F12.5°C 92% 1.0 mph WSW1.6 kmh WSW 8.0 mph12.9 kmh 29.82 in1009.8 mb 0.00 in0.0 mm 0.00 in0.0 mm 0.18 in4.6 mm
08:15 AM 57.2°F14.0°C 54.6°F12.6°C 91% 3.0 mph SW4.8 kmh SW 10.0 mph16.1 kmh 29.82 in1009.8 mb 0.00 in0.0 mm 0.00 in0.0 mm 0.18 in4.6 mm
08:30 AM 57.7°F14.3°C 55.1°F12.8°C 91% 1.0 mph WSW1.6 kmh WSW 4.0 mph6.4 kmh 29.82 in1009.8 mb 0.00 in0.0 mm 0.00 in0.0 mm 0.18 in4.6 mm
08:45 AM 58.5°F14.7°C 55.2°F12.9°C 89% 2.0 mph WSW3.2 kmh WSW 9.0 mph14.5 kmh 29.82 in1009.8 mb 0.00 in0.0 mm 0.00 in0.0 mm 0.18 in4.6 mm
09:00 AM 59.2°F15.1°C 55.0°F12.8°C 86% 5.0 mph W8.0 kmh W 11.0 mph17.7 kmh 29.82 in1009.8 mb 0.00 in0.0 mm 0.00 in0.0 mm 0.18 in4.6 mm
09:15 AM 59.9°F15.5°C 54.1°F12.3°C 81% 8.0 mph W12.9 kmh W 15.0 mph24.1 kmh 29.82 in1009.8 mb 0.00 in0.0 mm 0.00 in0.0 mm 0.18 in4.6 mm
09:30 AM 60.1°F15.6°C 53.2°F11.8°C 78% 7.0 mph W11.3 kmh W 13.0 mph20.9 kmh 29.83 in1010.2 mb 0.00 in0.0 mm 0.00 in0.0 mm 0.18 in4.6 mm
09:45 AM 59.7°F15.4°C 52.8°F11.6°C 78% 7.0 mph W11.3 kmh W 17.0 mph27.4 kmh 29.83 in1010.2 mb 0.00 in0.0 mm 0.00 in0.0 mm 0.18 in4.6 mm
10:00 AM 60.4°F15.8°C 53.9°F12.2°C 79% 4.0 mph W6.4 kmh W 10.0 mph16.1 kmh 29.83 in1010.2 mb 0.00 in0.0 mm 0.00 in0.0 mm 0.18 in4.6 mm
10:15 AM 61.7°F16.5°C 54.1°F12.3°C 76% 6.0 mph SW9.7 kmh SW 13.0 mph20.9 kmh 29.82 in1009.8 mb 0.00 in0.0 mm 0.00 in0.0 mm 0.18 in4.6 mm
10:30 AM 62.6°F17.0°C 52.7°F11.5°C 70% 7.0 mph WSW11.3 kmh WSW 13.0 mph20.9 kmh 29.82 in1009.8 mb 0.00 in0.0 mm 0.00 in0.0 mm 0.18 in4.6 mm
10:45 AM 63.1°F17.3°C 52.8°F11.6°C 69% 5.0 mph WSW8.0 kmh WSW 14.0 mph22.5 kmh 29.82 in1009.8 mb 0.00 in0.0 mm 0.00 in0.0 mm 0.18 in4.6 mm
11:00 AM 63.5°F17.5°C 52.3°F11.3°C 67% 4.0 mph SW6.4 kmh SW 12.0 mph19.3 kmh 29.83 in1010.2 mb 0.00 in0.0 mm 0.00 in0.0 mm 0.18 in4.6 mm
11:15 AM 62.4°F16.9°C 52.9°F11.6°C 71% 6.0 mph SW9.7 kmh SW 14.0 mph22.5 kmh 29.82 in1009.8 mb 0.00 in0.0 mm 0.00 in0.0 mm 0.18 in4.6 mm
11:30 AM 64.6°F18.1°C 53.4°F11.9°C 67% 6.0 mph SW9.7 kmh SW 15.0 mph24.1 kmh 29.83 in1010.2 mb 0.00 in0.0 mm 0.00 in0.0 mm 0.18 in4.6 mm
11:45 AM 64.0°F17.8°C 52.4°F11.3°C 66% 6.0 mph SW9.7 kmh SW 13.0 mph20.9 kmh 29.83 in1010.2 mb 0.00 in0.0 mm 0.00 in0.0 mm 0.18 in4.6 mm
12:00 PM 64.0°F17.8°C 52.9°F11.6°C 67% 5.0 mph SW8.0 kmh SW 14.0 mph22.5 kmh 29.82 in1009.8 mb 0.00 in0.0 mm 0.00 in0.0 mm 0.18 in4.6 mm
12:15 PM 66.2°F19.0°C 54.1°F12.3°C 65% 6.0 mph WSW9.7 kmh WSW 15.0 mph24.1 kmh 29.82 in1009.8 mb 0.00 in0.0 mm 0.00 in0.0 mm 0.18 in4.6 mm
12:30 PM 64.9°F18.3°C 52.0°F11.1°C 63% 6.0 mph W9.7 kmh W 15.0 mph24.1 kmh 29.83 in1010.2 mb 0.00 in0.0 mm 0.00 in0.0 mm 0.18 in4.6 mm
12:45 PM 64.0°F17.8°C 51.6°F10.9°C 64% 7.0 mph W11.3 kmh W 16.0 mph25.7 kmh 29.83 in1010.2 mb 0.00 in0.0 mm 0.00 in0.0 mm 0.18 in4.6 mm
01:00 PM 63.3°F17.4°C 52.6°F11.4°C 68% 6.0 mph W9.7 kmh W 15.0 mph24.1 kmh 29.83 in1010.2 mb 0.00 in0.0 mm 0.00 in0.0 mm 0.18 in4.6 mm
01:15 PM 63.3°F17.4°C 52.6°F11.4°C 68% 6.0 mph WSW9.7 kmh WSW 12.0 mph19.3 kmh 29.84 in1010.5 mb 0.00 in0.0 mm 0.00 in0.0 mm 0.18 in4.6 mm
01:30 PM 64.9°F18.3°C 53.7°F12.1°C 67% 6.0 mph WSW9.7 kmh WSW 16.0 mph25.7 kmh 29.84 in1010.5 mb 0.00 in0.0 mm 0.00 in0.0 mm 0.18 in4.6 mm
01:45 PM 65.8°F18.8°C 52.5°F11.4°C 62% 7.0 mph WSW11.3 kmh WSW 17.0 mph27.4 kmh 29.84 in1010.5 mb 0.00 in0.0 mm 0.00 in0.0 mm 0.18 in4.6 mm
02:00 PM 64.9°F18.3°C 51.2°F10.7°C 61% 8.0 mph W12.9 kmh W 15.0 mph24.1 kmh 29.84 in1010.5 mb 0.00 in0.0 mm 0.00 in0.0 mm 0.18 in4.6 mm
02:15 PM 63.9°F17.7°C 51.9°F11.1°C 65% 9.0 mph W14.5 kmh W 15.0 mph24.1 kmh 29.84 in1010.5 mb 0.00 in0.0 mm 0.00 in0.0 mm 0.18 in4.6 mm
02:30 PM 63.9°F17.7°C 51.4°F10.8°C 64% 10.0 mph WNW16.1 kmh WNW 20.0 mph32.2 kmh 29.85 in1010.8 mb 0.00 in0.0 mm 0.00 in0.0 mm 0.18 in4.6 mm
02:45 PM 63.3°F17.4°C 51.3°F10.7°C 65% 8.0 mph W12.9 kmh W 14.0 mph22.5 kmh 29.85 in1010.8 mb 0.00 in0.0 mm 0.00 in0.0 mm 0.18 in4.6 mm
03:00 PM 63.9°F17.7°C 52.3°F11.3°C 66% 8.0 mph W12.9 kmh W 17.0 mph27.4 kmh 29.86 in1011.2 mb 0.00 in0.0 mm 0.00 in0.0 mm 0.18 in4.6 mm
03:15 PM 63.1°F17.3°C 51.2°F10.7°C 65% 7.0 mph WNW11.3 kmh WNW 16.0 mph25.7 kmh 29.86 in1011.2 mb 0.00 in0.0 mm 0.00 in0.0 mm 0.18 in4.6 mm
03:30 PM 61.5°F16.4°C 52.0°F11.1°C 71% 9.0 mph WNW14.5 kmh WNW 16.0 mph25.7 kmh 29.87 in1011.5 mb 0.00 in0.0 mm 0.00 in0.0 mm 0.18 in4.6 mm
03:45 PM 61.3°F16.3°C 52.6°F11.4°C 73% 5.0 mph W8.0 kmh W 15.0 mph24.1 kmh 29.87 in1011.5 mb 0.00 in0.0 mm 0.00 in0.0 mm 0.18 in4.6 mm
04:00 PM 62.4°F16.9°C 52.9°F11.6°C 71% 6.0 mph WSW9.7 kmh WSW 14.0 mph22.5 kmh 29.87 in1011.5 mb 0.00 in0.0 mm 0.00 in0.0 mm 0.18 in4.6 mm
04:15 PM 63.0°F17.2°C 53.0°F11.7°C 70% 4.0 mph WSW6.4 kmh WSW 12.0 mph19.3 kmh 29.87 in1011.5 mb 0.00 in0.0 mm 0.00 in0.0 mm 0.18 in4.6 mm
04:30 PM 62.8°F17.1°C 52.5°F11.4°C 69% 5.0 mph W8.0 kmh W 11.0 mph17.7 kmh 29.88 in1011.9 mb 0.00 in0.0 mm 0.00 in0.0 mm 0.18 in4.6 mm
04:45 PM 63.1°F17.3°C 54.3°F12.4°C 73% 7.0 mph WNW11.3 kmh WNW 14.0 mph22.5 kmh 29.88 in1011.9 mb 0.00 in0.0 mm 0.00 in0.0 mm 0.18 in4.6 mm
05:00 PM 63.7°F17.6°C 54.1°F12.3°C 71% 5.0 mph W8.0 kmh W 12.0 mph19.3 kmh 29.88 in1011.9 mb 0.00 in0.0 mm 0.00 in0.0 mm 0.18 in4.6 mm
05:15 PM 65.1°F18.4°C 53.5°F11.9°C 66% 6.0 mph WSW9.7 kmh WSW 14.0 mph22.5 kmh 29.88 in1011.9 mb 0.00 in0.0 mm 0.00 in0.0 mm 0.18 in4.6 mm
05:30 PM 63.9°F17.7°C 52.3°F11.3°C 66% 5.0 mph SW8.0 kmh SW 12.0 mph19.3 kmh 29.89 in1012.2 mb 0.00 in0.0 mm 0.00 in0.0 mm 0.18 in4.6 mm
05:45 PM 63.0°F17.2°C 53.0°F11.7°C 70% 4.0 mph WSW6.4 kmh WSW 10.0 mph16.1 kmh 29.89 in1012.2 mb 0.00 in0.0 mm 0.00 in0.0 mm 0.18 in4.6 mm
06:00 PM 63.0°F17.2°C 53.0°F11.7°C 70% 5.0 mph WSW8.0 kmh WSW 11.0 mph17.7 kmh 29.89 in1012.2 mb 0.00 in0.0 mm 0.00 in0.0 mm 0.18 in4.6 mm
06:15 PM 62.2°F16.8°C 53.1°F11.7°C 72% 5.0 mph WSW8.0 kmh WSW 11.0 mph17.7 kmh 29.89 in1012.2 mb 0.00 in0.0 mm 0.00 in0.0 mm 0.18 in4.6 mm
06:30 PM 62.2°F16.8°C 52.7°F11.5°C 71% 5.0 mph WSW8.0 kmh WSW 12.0 mph19.3 kmh 29.90 in1012.5 mb 0.00 in0.0 mm 0.00 in0.0 mm 0.18 in4.6 mm
06:45 PM 61.9°F16.6°C 52.8°F11.6°C 72% 3.0 mph SW4.8 kmh SW 9.0 mph14.5 kmh 29.90 in1012.5 mb 0.00 in0.0 mm 0.00 in0.0 mm 0.18 in4.6 mm
07:00 PM 61.7°F16.5°C 52.6°F11.4°C 72% 2.0 mph SW3.2 kmh SW 8.0 mph12.9 kmh 29.91 in1012.9 mb 0.00 in0.0 mm 0.00 in0.0 mm 0.18 in4.6 mm
07:15 PM 61.5°F16.4°C 52.4°F11.3°C 72% 4.0 mph SW6.4 kmh SW 12.0 mph19.3 kmh 29.91 in1012.9 mb 0.00 in0.0 mm 0.00 in0.0 mm 0.18 in4.6 mm
07:30 PM 61.3°F16.3°C 52.6°F11.4°C 73% 3.0 mph SW4.8 kmh SW 9.0 mph14.5 kmh 29.92 in1013.2 mb 0.00 in0.0 mm 0.00 in0.0 mm 0.18 in4.6 mm
07:45 PM 61.0°F16.1°C 52.6°F11.4°C 74% 2.0 mph SW3.2 kmh SW 6.0 mph9.7 kmh 29.92 in1013.2 mb 0.00 in0.0 mm 0.00 in0.0 mm 0.18 in4.6 mm
08:00 PM 60.6°F15.9°C 52.6°F11.4°C 75% 3.0 mph SW4.8 kmh SW 8.0 mph12.9 kmh 29.93 in1013.5 mb 0.00 in0.0 mm 0.00 in0.0 mm 0.18 in4.6 mm
08:15 PM 60.3°F15.7°C 52.7°F11.5°C 76% 2.0 mph SW3.2 kmh SW 8.0 mph12.9 kmh 29.93 in1013.5 mb 0.00 in0.0 mm 0.00 in0.0 mm 0.18 in4.6 mm
08:30 PM 59.4°F15.2°C 52.1°F11.2°C 77% 3.0 mph SW4.8 kmh SW 8.0 mph12.9 kmh 29.94 in1013.9 mb 0.00 in0.0 mm 0.00 in0.0 mm 0.18 in4.6 mm
08:45 PM 58.8°F14.9°C 52.3°F11.3°C 79% 3.0 mph SW4.8 kmh SW 8.0 mph12.9 kmh 29.94 in1013.9 mb 0.00 in0.0 mm 0.00 in0.0 mm 0.18 in4.6 mm
09:00 PM 58.5°F14.7°C 52.3°F11.3°C 80% 4.0 mph SSW6.4 kmh SSW 9.0 mph14.5 kmh 29.94 in1013.9 mb 0.00 in0.0 mm 0.00 in0.0 mm 0.18 in4.6 mm
09:15 PM 57.9°F14.4°C 51.8°F11.0°C 80% 3.0 mph SSW4.8 kmh SSW 7.0 mph11.3 kmh 29.95 in1014.2 mb 0.00 in0.0 mm 0.00 in0.0 mm 0.18 in4.6 mm
09:30 PM 57.6°F14.2°C 52.1°F11.2°C 82% 3.0 mph SSW4.8 kmh SSW 8.0 mph12.9 kmh 29.95 in1014.2 mb 0.00 in0.0 mm 0.00 in0.0 mm 0.18 in4.6 mm
09:45 PM 57.0°F13.9°C 51.9°F11.1°C 83% 4.0 mph S6.4 kmh S 8.0 mph12.9 kmh 29.96 in1014.6 mb 0.00 in0.0 mm 0.00 in0.0 mm 0.18 in4.6 mm
10:00 PM 56.7°F13.7°C 51.9°F11.1°C 84% 4.0 mph SSW6.4 kmh SSW 9.0 mph14.5 kmh 29.96 in1014.6 mb 0.00 in0.0 mm 0.00 in0.0 mm 0.18 in4.6 mm
10:15 PM 56.3°F13.5°C 51.5°F10.8°C 84% 4.0 mph S6.4 kmh S 7.0 mph11.3 kmh 29.96 in1014.6 mb 0.00 in0.0 mm 0.00 in0.0 mm 0.18 in4.6 mm
10:30 PM 55.9°F13.3°C 51.2°F10.7°C 84% 3.0 mph S4.8 kmh S 9.0 mph14.5 kmh 29.97 in1014.9 mb 0.00 in0.0 mm 0.00 in0.0 mm 0.18 in4.6 mm
10:45 PM 55.8°F13.2°C 51.3°F10.7°C 85% 3.0 mph S4.8 kmh S 7.0 mph11.3 kmh 29.97 in1014.9 mb 0.00 in0.0 mm 0.00 in0.0 mm 0.18 in4.6 mm
11:00 PM 55.8°F13.2°C 51.6°F10.9°C 86% 3.0 mph S4.8 kmh S 4.0 mph6.4 kmh 29.97 in1014.9 mb 0.00 in0.0 mm 0.00 in0.0 mm 0.10 in2.5 mm
11:15 PM 55.8°F13.2°C 51.6°F10.9°C 86% 1.0 mph SSE1.6 kmh SSE 4.0 mph6.4 kmh 29.97 in1014.9 mb 0.00 in0.0 mm 0.00 in0.0 mm 0.10 in2.5 mm
11:30 PM 55.9°F13.3°C 51.8°F11.0°C 86% 3.0 mph S4.8 kmh S 5.0 mph8.0 kmh 29.97 in1014.9 mb 0.00 in0.0 mm 0.00 in0.0 mm 0.10 in2.5 mm
11:45 PM 55.8°F13.2°C 51.6°F10.9°C 86% Calm Calm 3.0 mph4.8 kmh 29.97 in1014.9 mb 0.00 in0.0 mm 0.00 in0.0 mm 0.10 in2.5 mm